sensor_id;sensor_type;location;lat;lon;timestamp;temperature;humidity
2973;DHT22;1496;51.404;7.232;2023-07-08T00:00:54;19.90;99.90
2973;DHT22;1496;51.404;7.232;2023-07-08T00:03:21;19.90;99.90
2973;DHT22;1496;51.404;7.232;2023-07-08T00:05:53;19.90;99.90
2973;DHT22;1496;51.404;7.232;2023-07-08T00:08:21;19.90;99.90
2973;DHT22;1496;51.404;7.232;2023-07-08T00:10:49;19.90;99.90
2973;DHT22;1496;51.404;7.232;2023-07-08T00:13:15;19.80;99.90
2973;DHT22;1496;51.404;7.232;2023-07-08T00:15:43;19.80;99.90
2973;DHT22;1496;51.404;7.232;2023-07-08T00:18:15;19.80;99.90
2973;DHT22;1496;51.404;7.232;2023-07-08T00:20:44;19.80;99.90
2973;DHT22;1496;51.404;7.232;2023-07-08T00:23:12;19.70;99.90
2973;DHT22;1496;51.404;7.232;2023-07-08T00:25:40;19.70;99.90
2973;DHT22;1496;51.404;7.232;2023-07-08T00:28:18;19.70;99.90
2973;DHT22;1496;51.404;7.232;2023-07-08T00:30:48;19.60;99.90
2973;DHT22;1496;51.404;7.232;2023-07-08T00:33:16;19.60;99.90
2973;DHT22;1496;51.404;7.232;2023-07-08T00:35:45;19.60;99.90
2973;DHT22;1496;51.404;7.232;2023-07-08T00:38:22;19.60;99.90
2973;DHT22;1496;51.404;7.232;2023-07-08T00:41:11;19.60;99.90
2973;DHT22;1496;51.404;7.232;2023-07-08T00:43:48;19.60;99.90
2973;DHT22;1496;51.404;7.232;2023-07-08T00:46:31;19.60;99.90
2973;DHT22;1496;51.404;7.232;2023-07-08T00:49:14;19.60;99.90
2973;DHT22;1496;51.404;7.232;2023-07-08T00:51:43;19.60;99.90
2973;DHT22;1496;51.404;7.232;2023-07-08T00:54:14;19.60;99.90
2973;DHT22;1496;51.404;7.232;2023-07-08T00:59:29;19.60;99.90
2973;DHT22;1496;51.404;7.232;2023-07-08T01:02:01;19.50;99.90
2973;DHT22;1496;51.404;7.232;2023-07-08T01:04:39;19.50;99.90
2973;DHT22;1496;51.404;7.232;2023-07-08T01:07:10;19.50;99.90
2973;DHT22;1496;51.404;7.232;2023-07-08T01:09:40;19.50;99.90
2973;DHT22;1496;51.404;7.232;2023-07-08T01:12:12;19.50;99.90
2973;DHT22;1496;51.404;7.232;2023-07-08T01:14:42;19.50;99.90
2973;DHT22;1496;51.404;7.232;2023-07-08T01:17:10;19.50;99.90
2973;DHT22;1496;51.404;7.232;2023-07-08T01:19:41;19.40;99.90
2973;DHT22;1496;51.404;7.232;2023-07-08T01:22:10;19.40;99.90
2973;DHT22;1496;51.404;7.232;2023-07-08T01:24:40;19.30;99.90
2973;DHT22;1496;51.404;7.232;2023-07-08T01:27:10;19.30;99.90
2973;DHT22;1496;51.404;7.232;2023-07-08T01:29:38;19.30;99.90
2973;DHT22;1496;51.404;7.232;2023-07-08T01:32:11;19.20;99.90
2973;DHT22;1496;51.404;7.232;2023-07-08T01:34:44;19.20;99.90
2973;DHT22;1496;51.404;7.232;2023-07-08T01:37:48;19.10;99.90
2973;DHT22;1496;51.404;7.232;2023-07-08T01:40:35;19.10;99.90
2973;DHT22;1496;51.404;7.232;2023-07-08T01:43:04;19.10;99.90
2973;DHT22;1496;51.404;7.232;2023-07-08T01:45:39;19.10;99.90
2973;DHT22;1496;51.404;7.232;2023-07-08T01:48:10;19.00;99.90
2973;DHT22;1496;51.404;7.232;2023-07-08T01:50:50;19.00;99.90
2973;DHT22;1496;51.404;7.232;2023-07-08T01:53:28;19.00;99.90
2973;DHT22;1496;51.404;7.232;2023-07-08T01:55:55;19.00;99.90
2973;DHT22;1496;51.404;7.232;2023-07-08T01:58:22;18.90;99.90
2973;DHT22;1496;51.404;7.232;2023-07-08T02:00:49;18.90;99.90
2973;DHT22;1496;51.404;7.232;2023-07-08T02:03:17;18.90;99.90
2973;DHT22;1496;51.404;7.232;2023-07-08T02:05:43;18.80;99.90
2973;DHT22;1496;51.404;7.232;2023-07-08T02:08:09;18.80;99.90
2973;DHT22;1496;51.404;7.232;2023-07-08T02:10:38;18.90;99.90
2973;DHT22;1496;51.404;7.232;2023-07-08T02:13:04;18.90;99.90
2973;DHT22;1496;51.404;7.232;2023-07-08T02:15:32;18.90;99.90
2973;DHT22;1496;51.404;7.232;2023-07-08T02:17:59;18.90;99.90
2973;DHT22;1496;51.404;7.232;2023-07-08T02:20:25;18.90;99.90
2973;DHT22;1496;51.404;7.232;2023-07-08T02:22:52;18.90;99.90
2973;DHT22;1496;51.404;7.232;2023-07-08T02:25:20;18.90;99.90
2973;DHT22;1496;51.404;7.232;2023-07-08T02:27:46;18.80;99.90
2973;DHT22;1496;51.404;7.232;2023-07-08T02:30:14;18.80;99.90
2973;DHT22;1496;51.404;7.232;2023-07-08T02:32:41;18.80;99.90
2973;DHT22;1496;51.404;7.232;2023-07-08T02:35:09;18.80;99.90
2973;DHT22;1496;51.404;7.232;2023-07-08T02:37:36;18.80;99.90
2973;DHT22;1496;51.404;7.232;2023-07-08T02:40:03;18.70;99.90
2973;DHT22;1496;51.404;7.232;2023-07-08T02:42:30;18.70;99.90
2973;DHT22;1496;51.404;7.232;2023-07-08T02:44:57;18.60;99.90
2973;DHT22;1496;51.404;7.232;2023-07-08T02:47:23;18.60;99.90
2973;DHT22;1496;51.404;7.232;2023-07-08T02:49:50;18.60;99.90
2973;DHT22;1496;51.404;7.232;2023-07-08T02:52:18;18.60;99.90
2973;DHT22;1496;51.404;7.232;2023-07-08T02:54:45;18.50;99.90
2973;DHT22;1496;51.404;7.232;2023-07-08T02:57:11;18.50;99.90
2973;DHT22;1496;51.404;7.232;2023-07-08T02:59:37;18.50;99.90
2973;DHT22;1496;51.404;7.232;2023-07-08T03:02:04;18.50;99.90
2973;DHT22;1496;51.404;7.232;2023-07-08T03:04:32;18.40;99.90
2973;DHT22;1496;51.404;7.232;2023-07-08T03:06:58;18.40;99.90
2973;DHT22;1496;51.404;7.232;2023-07-08T03:09:25;18.30;99.90
2973;DHT22;1496;51.404;7.232;2023-07-08T03:11:53;18.40;99.90
2973;DHT22;1496;51.404;7.232;2023-07-08T03:14:20;18.40;99.90
2973;DHT22;1496;51.404;7.232;2023-07-08T03:16:46;18.40;99.90
2973;DHT22;1496;51.404;7.232;2023-07-08T03:19:12;18.50;99.90
2973;DHT22;1496;51.404;7.232;2023-07-08T03:21:42;18.50;99.90
2973;DHT22;1496;51.404;7.232;2023-07-08T03:24:10;18.50;99.90
2973;DHT22;1496;51.404;7.232;2023-07-08T03:26:44;18.50;99.90
2973;DHT22;1496;51.404;7.232;2023-07-08T03:29:16;18.50;99.90
2973;DHT22;1496;51.404;7.232;2023-07-08T03:31:45;18.40;99.90
2973;DHT22;1496;51.404;7.232;2023-07-08T03:34:12;18.40;99.90
2973;DHT22;1496;51.404;7.232;2023-07-08T03:36:46;18.30;99.90
2973;DHT22;1496;51.404;7.232;2023-07-08T03:39:20;18.20;99.90
2973;DHT22;1496;51.404;7.232;2023-07-08T03:41:49;18.30;99.90
2973;DHT22;1496;51.404;7.232;2023-07-08T03:44:17;18.20;99.90
2973;DHT22;1496;51.404;7.232;2023-07-08T03:46:45;18.20;99.90
2973;DHT22;1496;51.404;7.232;2023-07-08T03:49:15;18.10;99.90
2973;DHT22;1496;51.404;7.232;2023-07-08T03:51:43;18.20;99.90
2973;DHT22;1496;51.404;7.232;2023-07-08T03:54:12;18.10;99.90
2973;DHT22;1496;51.404;7.232;2023-07-08T03:56:40;18.20;99.90
2973;DHT22;1496;51.404;7.232;2023-07-08T03:59:09;18.20;99.90
2973;DHT22;1496;51.404;7.232;2023-07-08T04:01:37;18.20;99.90
2973;DHT22;1496;51.404;7.232;2023-07-08T04:04:13;18.20;99.90
2973;DHT22;1496;51.404;7.232;2023-07-08T04:06:42;18.10;99.90
2973;DHT22;1496;51.404;7.232;2023-07-08T04:09:09;18.10;99.90
2973;DHT22;1496;51.404;7.232;2023-07-08T04:11:36;18.00;99.90
2973;DHT22;1496;51.404;7.232;2023-07-08T04:14:02;18.00;99.90
2973;DHT22;1496;51.404;7.232;2023-07-08T04:16:48;17.90;99.90
2973;DHT22;1496;51.404;7.232;2023-07-08T04:19:17;18.00;99.90
2973;DHT22;1496;51.404;7.232;2023-07-08T04:21:46;17.90;99.90
2973;DHT22;1496;51.404;7.232;2023-07-08T04:24:14;17.90;99.90
2973;DHT22;1496;51.404;7.232;2023-07-08T04:26:43;17.90;99.90
2973;DHT22;1496;51.404;7.232;2023-07-08T04:29:14;17.90;99.90
2973;DHT22;1496;51.404;7.232;2023-07-08T04:31:41;17.80;99.90
2973;DHT22;1496;51.404;7.232;2023-07-08T04:34:09;17.80;99.90
2973;DHT22;1496;51.404;7.232;2023-07-08T04:36:36;17.80;99.90
2973;DHT22;1496;51.404;7.232;2023-07-08T04:39:04;17.80;99.90
2973;DHT22;1496;51.404;7.232;2023-07-08T04:41:32;17.70;99.90
2973;DHT22;1496;51.404;7.232;2023-07-08T04:44:09;17.70;99.90
2973;DHT22;1496;51.404;7.232;2023-07-08T04:46:41;17.70;99.90
2973;DHT22;1496;51.404;7.232;2023-07-08T04:49:09;17.70;99.90
2973;DHT22;1496;51.404;7.232;2023-07-08T04:51:40;17.70;99.90
2973;DHT22;1496;51.404;7.232;2023-07-08T04:54:08;17.80;99.90
2973;DHT22;1496;51.404;7.232;2023-07-08T04:56:44;17.70;99.90
2973;DHT22;1496;51.404;7.232;2023-07-08T04:59:13;17.70;99.90
2973;DHT22;1496;51.404;7.232;2023-07-08T05:01:40;17.70;99.90
2973;DHT22;1496;51.404;7.232;2023-07-08T05:04:13;17.70;99.90
2973;DHT22;1496;51.404;7.232;2023-07-08T05:06:40;17.80;99.90
2973;DHT22;1496;51.404;7.232;2023-07-08T05:09:09;17.80;99.90
2973;DHT22;1496;51.404;7.232;2023-07-08T05:11:36;17.80;99.90
2973;DHT22;1496;51.404;7.232;2023-07-08T05:14:03;17.80;99.90
2973;DHT22;1496;51.404;7.232;2023-07-08T05:16:33;17.90;99.90
2973;DHT22;1496;51.404;7.232;2023-07-08T05:19:00;18.00;99.90
2973;DHT22;1496;51.404;7.232;2023-07-08T05:21:28;18.00;99.90
2973;DHT22;1496;51.404;7.232;2023-07-08T05:23:55;18.10;99.90
2973;DHT22;1496;51.404;7.232;2023-07-08T05:26:22;18.20;99.90
2973;DHT22;1496;51.404;7.232;2023-07-08T05:28:49;18.30;99.90
2973;DHT22;1496;51.404;7.232;2023-07-08T05:31:15;18.30;99.90
2973;DHT22;1496;51.404;7.232;2023-07-08T05:33:42;18.40;99.90
2973;DHT22;1496;51.404;7.232;2023-07-08T05:36:10;18.40;99.90
2973;DHT22;1496;51.404;7.232;2023-07-08T05:38:36;18.40;99.90
2973;DHT22;1496;51.404;7.232;2023-07-08T05:41:04;18.50;99.90
2973;DHT22;1496;51.404;7.232;2023-07-08T05:43:31;18.60;99.90
2973;DHT22;1496;51.404;7.232;2023-07-08T05:46:01;18.60;99.90
2973;DHT22;1496;51.404;7.232;2023-07-08T05:48:28;18.60;99.90
2973;DHT22;1496;51.404;7.232;2023-07-08T05:50:55;18.70;99.90
2973;DHT22;1496;51.404;7.232;2023-07-08T05:53:22;18.80;99.90
2973;DHT22;1496;51.404;7.232;2023-07-08T05:55:49;18.90;99.90
2973;DHT22;1496;51.404;7.232;2023-07-08T05:58:15;18.90;99.90
2973;DHT22;1496;51.404;7.232;2023-07-08T06:00:43;19.00;99.90
2973;DHT22;1496;51.404;7.232;2023-07-08T06:03:09;19.10;99.90
2973;DHT22;1496;51.404;7.232;2023-07-08T06:05:38;19.30;99.90
2973;DHT22;1496;51.404;7.232;2023-07-08T06:08:06;19.40;99.90
2973;DHT22;1496;51.404;7.232;2023-07-08T06:10:34;19.60;99.90
2973;DHT22;1496;51.404;7.232;2023-07-08T06:13:01;19.60;99.90
2973;DHT22;1496;51.404;7.232;2023-07-08T06:15:28;19.80;99.90
2973;DHT22;1496;51.404;7.232;2023-07-08T06:17:54;19.90;99.90
2973;DHT22;1496;51.404;7.232;2023-07-08T06:20:20;20.10;99.90
2973;DHT22;1496;51.404;7.232;2023-07-08T06:22:47;20.20;99.90
2973;DHT22;1496;51.404;7.232;2023-07-08T06:25:14;20.30;99.90
2973;DHT22;1496;51.404;7.232;2023-07-08T06:27:42;20.40;99.90
2973;DHT22;1496;51.404;7.232;2023-07-08T06:30:09;20.50;99.90
2973;DHT22;1496;51.404;7.232;2023-07-08T06:32:37;20.70;99.90
2973;DHT22;1496;51.404;7.232;2023-07-08T06:35:04;20.80;99.90
2973;DHT22;1496;51.404;7.232;2023-07-08T06:37:30;20.90;99.90
2973;DHT22;1496;51.404;7.232;2023-07-08T06:39:57;21.00;99.90
2973;DHT22;1496;51.404;7.232;2023-07-08T06:42:24;21.10;99.90
2973;DHT22;1496;51.404;7.232;2023-07-08T06:44:59;21.20;99.90
2973;DHT22;1496;51.404;7.232;2023-07-08T06:47:27;21.30;99.90
2973;DHT22;1496;51.404;7.232;2023-07-08T06:49:54;21.40;99.90
2973;DHT22;1496;51.404;7.232;2023-07-08T06:52:21;21.50;99.90
2973;DHT22;1496;51.404;7.232;2023-07-08T06:54:48;21.50;99.90
2973;DHT22;1496;51.404;7.232;2023-07-08T06:57:14;21.50;99.90
2973;DHT22;1496;51.404;7.232;2023-07-08T06:59:41;21.60;99.90
2973;DHT22;1496;51.404;7.232;2023-07-08T07:02:08;21.80;99.90
2973;DHT22;1496;51.404;7.232;2023-07-08T07:04:35;21.90;99.90
2973;DHT22;1496;51.404;7.232;2023-07-08T07:07:02;21.90;99.90
2973;DHT22;1496;51.404;7.232;2023-07-08T07:09:29;22.10;99.90
2973;DHT22;1496;51.404;7.232;2023-07-08T07:11:55;22.20;99.90
2973;DHT22;1496;51.404;7.232;2023-07-08T07:14:21;22.30;99.90
2973;DHT22;1496;51.404;7.232;2023-07-08T07:16:49;22.40;99.90
2973;DHT22;1496;51.404;7.232;2023-07-08T07:19:15;22.50;99.90
2973;DHT22;1496;51.404;7.232;2023-07-08T07:21:42;22.60;99.90
2973;DHT22;1496;51.404;7.232;2023-07-08T07:24:08;22.70;99.90
2973;DHT22;1496;51.404;7.232;2023-07-08T07:26:36;22.90;99.90
2973;DHT22;1496;51.404;7.232;2023-07-08T07:29:02;23.00;99.90
2973;DHT22;1496;51.404;7.232;2023-07-08T07:31:30;23.10;99.90
2973;DHT22;1496;51.404;7.232;2023-07-08T07:33:59;23.20;99.90
2973;DHT22;1496;51.404;7.232;2023-07-08T07:36:26;23.30;99.90
2973;DHT22;1496;51.404;7.232;2023-07-08T07:38:53;23.40;99.90
2973;DHT22;1496;51.404;7.232;2023-07-08T07:41:20;23.50;99.90
2973;DHT22;1496;51.404;7.232;2023-07-08T07:43:47;23.60;99.90
2973;DHT22;1496;51.404;7.232;2023-07-08T07:46:13;23.80;99.90
2973;DHT22;1496;51.404;7.232;2023-07-08T07:48:41;23.90;99.90
2973;DHT22;1496;51.404;7.232;2023-07-08T07:51:08;24.00;99.90
2973;DHT22;1496;51.404;7.232;2023-07-08T07:53:39;24.10;99.90
2973;DHT22;1496;51.404;7.232;2023-07-08T07:56:08;24.30;99.90
2973;DHT22;1496;51.404;7.232;2023-07-08T07:58:35;24.50;99.90
2973;DHT22;1496;51.404;7.232;2023-07-08T08:01:01;24.70;99.90
2973;DHT22;1496;51.404;7.232;2023-07-08T08:03:27;24.80;99.90
2973;DHT22;1496;51.404;7.232;2023-07-08T08:05:55;24.90;99.90
2973;DHT22;1496;51.404;7.232;2023-07-08T08:08:23;25.20;99.90
2973;DHT22;1496;51.404;7.232;2023-07-08T08:10:51;25.30;99.90
2973;DHT22;1496;51.404;7.232;2023-07-08T08:13:18;25.40;99.90
2973;DHT22;1496;51.404;7.232;2023-07-08T08:15:45;25.40;99.90
2973;DHT22;1496;51.404;7.232;2023-07-08T08:18:12;25.40;99.90
2973;DHT22;1496;51.404;7.232;2023-07-08T08:20:38;25.50;99.90
2973;DHT22;1496;51.404;7.232;2023-07-08T08:23:07;25.70;99.90
2973;DHT22;1496;51.404;7.232;2023-07-08T08:25:33;25.90;99.90
2973;DHT22;1496;51.404;7.232;2023-07-08T08:28:01;26.30;99.90
2973;DHT22;1496;51.404;7.232;2023-07-08T08:30:28;26.40;99.90
2973;DHT22;1496;51.404;7.232;2023-07-08T08:32:55;26.70;99.90
2973;DHT22;1496;51.404;7.232;2023-07-08T08:35:22;27.10;99.90
2973;DHT22;1496;51.404;7.232;2023-07-08T08:37:49;27.40;99.90
2973;DHT22;1496;51.404;7.232;2023-07-08T08:40:18;27.60;99.90
2973;DHT22;1496;51.404;7.232;2023-07-08T08:42:51;27.80;99.90
2973;DHT22;1496;51.404;7.232;2023-07-08T08:45:22;28.00;99.90
2973;DHT22;1496;51.404;7.232;2023-07-08T08:47:57;28.10;99.90
2973;DHT22;1496;51.404;7.232;2023-07-08T08:50:32;28.30;99.90
2973;DHT22;1496;51.404;7.232;2023-07-08T08:53:03;28.50;99.90
2973;DHT22;1496;51.404;7.232;2023-07-08T08:55:31;28.70;99.90
2973;DHT22;1496;51.404;7.232;2023-07-08T08:58:15;28.80;99.90
2973;DHT22;1496;51.404;7.232;2023-07-08T09:00:51;28.40;99.90
2973;DHT22;1496;51.404;7.232;2023-07-08T09:06:33;27.90;99.90
2973;DHT22;1496;51.404;7.232;2023-07-08T09:09:09;28.20;99.90
2973;DHT22;1496;51.404;7.232;2023-07-08T09:11:51;28.40;99.90
2973;DHT22;1496;51.404;7.232;2023-07-08T09:19:35;28.90;99.90
2973;DHT22;1496;51.404;7.232;2023-07-08T09:24:53;28.10;99.90
2973;DHT22;1496;51.404;7.232;2023-07-08T09:27:21;28.00;99.90
2973;DHT22;1496;51.404;7.232;2023-07-08T09:29:48;28.00;99.90
2973;DHT22;1496;51.404;7.232;2023-07-08T09:34:53;28.10;99.90
2973;DHT22;1496;51.404;7.232;2023-07-08T09:37:26;28.40;99.90
2973;DHT22;1496;51.404;7.232;2023-07-08T09:39:56;28.70;99.90
2973;DHT22;1496;51.404;7.232;2023-07-08T09:42:31;28.90;99.90
2973;DHT22;1496;51.404;7.232;2023-07-08T09:45:02;29.30;99.90
2973;DHT22;1496;51.404;7.232;2023-07-08T09:47:36;29.50;99.90
2973;DHT22;1496;51.404;7.232;2023-07-08T09:50:24;29.70;99.90
2973;DHT22;1496;51.404;7.232;2023-07-08T09:52:53;29.80;99.90
2973;DHT22;1496;51.404;7.232;2023-07-08T09:55:20;29.90;99.90
2973;DHT22;1496;51.404;7.232;2023-07-08T09:57:50;29.60;99.90
2973;DHT22;1496;51.404;7.232;2023-07-08T10:00:33;29.70;99.90
2973;DHT22;1496;51.404;7.232;2023-07-08T10:03:09;29.90;99.90
2973;DHT22;1496;51.404;7.232;2023-07-08T10:05:41;30.00;99.90
2973;DHT22;1496;51.404;7.232;2023-07-08T10:08:17;30.00;99.90
2973;DHT22;1496;51.404;7.232;2023-07-08T10:10:47;30.10;99.90
2973;DHT22;1496;51.404;7.232;2023-07-08T10:13:26;30.20;99.90
2973;DHT22;1496;51.404;7.232;2023-07-08T10:15:59;30.30;99.90
2973;DHT22;1496;51.404;7.232;2023-07-08T10:18:30;30.50;99.90
2973;DHT22;1496;51.404;7.232;2023-07-08T10:24:29;30.30;99.90
2973;DHT22;1496;51.404;7.232;2023-07-08T10:30:26;30.40;99.90
2973;DHT22;1496;51.404;7.232;2023-07-08T10:36:11;30.30;99.90
2973;DHT22;1496;51.404;7.232;2023-07-08T10:38:59;30.50;99.90
2973;DHT22;1496;51.404;7.232;2023-07-08T10:44:57;30.60;99.90
2973;DHT22;1496;51.404;7.232;2023-07-08T10:47:49;30.70;99.90
2973;DHT22;1496;51.404;7.232;2023-07-08T10:50:34;30.90;99.90
2973;DHT22;1496;51.404;7.232;2023-07-08T10:55:58;31.00;99.90
2973;DHT22;1496;51.404;7.232;2023-07-08T11:02:11;31.30;99.90
2973;DHT22;1496;51.404;7.232;2023-07-08T11:07:39;31.40;99.90
2973;DHT22;1496;51.404;7.232;2023-07-08T11:13:06;31.40;99.90
2973;DHT22;1496;51.404;7.232;2023-07-08T11:15:46;31.50;99.90
2973;DHT22;1496;51.404;7.232;2023-07-08T11:21:04;31.80;99.90
2973;DHT22;1496;51.404;7.232;2023-07-08T11:24:12;31.70;99.90
2973;DHT22;1496;51.404;7.232;2023-07-08T11:27:05;31.60;99.90
2973;DHT22;1496;51.404;7.232;2023-07-08T11:30:12;31.70;99.90
2973;DHT22;1496;51.404;7.232;2023-07-08T11:32:43;31.80;99.90
2973;DHT22;1496;51.404;7.232;2023-07-08T11:35:36;31.70;99.90
2973;DHT22;1496;51.404;7.232;2023-07-08T11:38:04;31.70;99.90
2973;DHT22;1496;51.404;7.232;2023-07-08T11:40:31;31.70;99.90
2973;DHT22;1496;51.404;7.232;2023-07-08T11:43:03;31.80;99.90
2973;DHT22;1496;51.404;7.232;2023-07-08T11:45:38;31.90;99.90
2973;DHT22;1496;51.404;7.232;2023-07-08T11:48:13;32.00;99.90
2973;DHT22;1496;51.404;7.232;2023-07-08T11:50:44;32.10;99.90
2973;DHT22;1496;51.404;7.232;2023-07-08T11:53:49;32.10;99.90
2973;DHT22;1496;51.404;7.232;2023-07-08T12:02:02;32.30;99.90
2973;DHT22;1496;51.404;7.232;2023-07-08T12:07:38;32.20;99.90
2973;DHT22;1496;51.404;7.232;2023-07-08T12:10:17;32.30;99.90
2973;DHT22;1496;51.404;7.232;2023-07-08T12:12:48;32.30;99.90
2973;DHT22;1496;51.404;7.232;2023-07-08T12:15:31;32.40;99.90
2973;DHT22;1496;51.404;7.232;2023-07-08T12:18:02;32.60;99.90
2973;DHT22;1496;51.404;7.232;2023-07-08T12:20:34;32.50;99.90
2973;DHT22;1496;51.404;7.232;2023-07-08T12:23:16;32.60;99.90
2973;DHT22;1496;51.404;7.232;2023-07-08T12:25:45;32.60;99.90
2973;DHT22;1496;51.404;7.232;2023-07-08T12:28:11;32.70;99.90
2973;DHT22;1496;51.404;7.232;2023-07-08T12:30:39;32.60;99.90
2973;DHT22;1496;51.404;7.232;2023-07-08T12:33:13;32.60;99.90
2973;DHT22;1496;51.404;7.232;2023-07-08T12:35:42;32.50;99.90
2973;DHT22;1496;51.404;7.232;2023-07-08T12:38:31;32.70;99.90
2973;DHT22;1496;51.404;7.232;2023-07-08T12:41:01;32.60;99.90
2973;DHT22;1496;51.404;7.232;2023-07-08T12:43:29;32.60;99.90
2973;DHT22;1496;51.404;7.232;2023-07-08T12:45:57;32.60;99.90
2973;DHT22;1496;51.404;7.232;2023-07-08T12:48:25;32.50;99.90
2973;DHT22;1496;51.404;7.232;2023-07-08T12:50:50;32.70;99.90
2973;DHT22;1496;51.404;7.232;2023-07-08T12:53:19;32.60;99.90
2973;DHT22;1496;51.404;7.232;2023-07-08T12:55:45;32.60;99.90
2973;DHT22;1496;51.404;7.232;2023-07-08T12:58:24;32.70;99.90
2973;DHT22;1496;51.404;7.232;2023-07-08T13:00:55;32.80;99.90
2973;DHT22;1496;51.404;7.232;2023-07-08T13:03:26;32.80;99.90
2973;DHT22;1496;51.404;7.232;2023-07-08T13:05:54;32.60;99.90
2973;DHT22;1496;51.404;7.232;2023-07-08T13:08:22;32.60;99.90
2973;DHT22;1496;51.404;7.232;2023-07-08T13:10:52;32.80;99.90
2973;DHT22;1496;51.404;7.232;2023-07-08T13:13:24;32.80;99.90
2973;DHT22;1496;51.404;7.232;2023-07-08T13:15:52;32.90;99.90
2973;DHT22;1496;51.404;7.232;2023-07-08T13:20:57;32.80;99.90
2973;DHT22;1496;51.404;7.232;2023-07-08T13:23:26;32.90;99.90
2973;DHT22;1496;51.404;7.232;2023-07-08T13:25:54;32.80;99.90
2973;DHT22;1496;51.404;7.232;2023-07-08T13:28:25;33.00;99.90
2973;DHT22;1496;51.404;7.232;2023-07-08T13:33:35;33.00;99.90
2973;DHT22;1496;51.404;7.232;2023-07-08T13:36:04;33.00;99.90
2973;DHT22;1496;51.404;7.232;2023-07-08T13:38:35;33.00;99.90
2973;DHT22;1496;51.404;7.232;2023-07-08T13:41:05;33.00;99.90
2973;DHT22;1496;51.404;7.232;2023-07-08T13:43:35;33.00;99.90
2973;DHT22;1496;51.404;7.232;2023-07-08T13:46:03;33.10;99.90
2973;DHT22;1496;51.404;7.232;2023-07-08T13:48:37;33.00;99.90
2973;DHT22;1496;51.404;7.232;2023-07-08T13:53:47;33.00;99.90
2973;DHT22;1496;51.404;7.232;2023-07-08T13:58:50;33.00;99.90
2973;DHT22;1496;51.404;7.232;2023-07-08T14:01:26;33.10;99.90
2973;DHT22;1496;51.404;7.232;2023-07-08T14:03:53;33.10;99.90
2973;DHT22;1496;51.404;7.232;2023-07-08T14:06:28;33.10;99.90
2973;DHT22;1496;51.404;7.232;2023-07-08T14:08:58;33.00;99.90
2973;DHT22;1496;51.404;7.232;2023-07-08T14:11:26;32.90;99.90
2973;DHT22;1496;51.404;7.232;2023-07-08T14:13:53;33.10;99.90
2973;DHT22;1496;51.404;7.232;2023-07-08T14:16:25;33.20;99.90
2973;DHT22;1496;51.404;7.232;2023-07-08T14:18:56;33.30;99.90
2973;DHT22;1496;51.404;7.232;2023-07-08T14:21:23;33.30;99.90
2973;DHT22;1496;51.404;7.232;2023-07-08T14:23:50;33.30;99.90
2973;DHT22;1496;51.404;7.232;2023-07-08T14:26:16;33.40;99.90
2973;DHT22;1496;51.404;7.232;2023-07-08T14:28:43;33.30;99.90
2973;DHT22;1496;51.404;7.232;2023-07-08T14:31:11;33.30;99.90
2973;DHT22;1496;51.404;7.232;2023-07-08T14:33:38;33.30;99.90
2973;DHT22;1496;51.404;7.232;2023-07-08T14:36:12;33.30;99.90
2973;DHT22;1496;51.404;7.232;2023-07-08T14:38:39;33.30;99.90
2973;DHT22;1496;51.404;7.232;2023-07-08T14:41:05;33.30;99.90
2973;DHT22;1496;51.404;7.232;2023-07-08T14:43:33;33.30;99.90
2973;DHT22;1496;51.404;7.232;2023-07-08T14:46:03;33.10;99.90
2973;DHT22;1496;51.404;7.232;2023-07-08T14:48:32;33.00;99.90
2973;DHT22;1496;51.404;7.232;2023-07-08T14:51:00;32.90;99.90
2973;DHT22;1496;51.404;7.232;2023-07-08T14:53:27;32.90;99.90
2973;DHT22;1496;51.404;7.232;2023-07-08T14:55:55;32.90;99.90
2973;DHT22;1496;51.404;7.232;2023-07-08T14:58:30;32.80;99.90
2973;DHT22;1496;51.404;7.232;2023-07-08T15:00:59;32.70;99.90
2973;DHT22;1496;51.404;7.232;2023-07-08T15:03:29;32.60;99.90
2973;DHT22;1496;51.404;7.232;2023-07-08T15:05:56;32.60;99.90
2973;DHT22;1496;51.404;7.232;2023-07-08T15:08:23;32.60;99.90
2973;DHT22;1496;51.404;7.232;2023-07-08T15:10:52;32.70;99.90
2973;DHT22;1496;51.404;7.232;2023-07-08T15:13:20;32.70;99.90
2973;DHT22;1496;51.404;7.232;2023-07-08T15:15:49;32.80;99.90
2973;DHT22;1496;51.404;7.232;2023-07-08T15:18:18;32.70;99.90
2973;DHT22;1496;51.404;7.232;2023-07-08T15:20:48;32.60;99.90
2973;DHT22;1496;51.404;7.232;2023-07-08T15:23:14;32.50;99.90
2973;DHT22;1496;51.404;7.232;2023-07-08T15:25:44;32.60;99.90
2973;DHT22;1496;51.404;7.232;2023-07-08T15:28:33;32.30;99.90
2973;DHT22;1496;51.404;7.232;2023-07-08T15:31:07;32.20;99.90
2973;DHT22;1496;51.404;7.232;2023-07-08T15:33:35;32.00;99.90
2973;DHT22;1496;51.404;7.232;2023-07-08T15:36:01;31.80;99.90
2973;DHT22;1496;51.404;7.232;2023-07-08T15:38:28;31.80;99.90
2973;DHT22;1496;51.404;7.232;2023-07-08T15:40:54;31.70;99.90
2973;DHT22;1496;51.404;7.232;2023-07-08T15:43:21;31.80;99.90
2973;DHT22;1496;51.404;7.232;2023-07-08T15:45:48;31.80;99.90
2973;DHT22;1496;51.404;7.232;2023-07-08T15:48:16;32.00;99.90
2973;DHT22;1496;51.404;7.232;2023-07-08T15:50:44;32.00;99.90
2973;DHT22;1496;51.404;7.232;2023-07-08T15:53:11;32.00;99.90
2973;DHT22;1496;51.404;7.232;2023-07-08T15:55:42;31.90;99.90
2973;DHT22;1496;51.404;7.232;2023-07-08T15:58:27;31.80;99.90
2973;DHT22;1496;51.404;7.232;2023-07-08T16:00:54;31.70;99.90
2973;DHT22;1496;51.404;7.232;2023-07-08T16:03:24;31.70;99.90
2973;DHT22;1496;51.404;7.232;2023-07-08T16:05:52;31.60;99.90
2973;DHT22;1496;51.404;7.232;2023-07-08T16:08:20;31.50;99.90
2973;DHT22;1496;51.404;7.232;2023-07-08T16:10:53;31.50;99.90
2973;DHT22;1496;51.404;7.232;2023-07-08T16:13:25;31.50;99.90
2973;DHT22;1496;51.404;7.232;2023-07-08T16:15:52;31.30;99.90
2973;DHT22;1496;51.404;7.232;2023-07-08T16:18:19;31.20;99.90
2973;DHT22;1496;51.404;7.232;2023-07-08T16:20:47;31.20;99.90
2973;DHT22;1496;51.404;7.232;2023-07-08T16:23:14;31.10;99.90
2973;DHT22;1496;51.404;7.232;2023-07-08T16:25:47;31.10;99.90
2973;DHT22;1496;51.404;7.232;2023-07-08T16:31:11;31.00;99.90
2973;DHT22;1496;51.404;7.232;2023-07-08T16:33:38;30.90;99.90
2973;DHT22;1496;51.404;7.232;2023-07-08T16:36:09;30.90;99.90
2973;DHT22;1496;51.404;7.232;2023-07-08T16:38:39;30.90;99.90
2973;DHT22;1496;51.404;7.232;2023-07-08T16:41:13;31.00;99.90
2973;DHT22;1496;51.404;7.232;2023-07-08T16:43:39;31.10;99.90
2973;DHT22;1496;51.404;7.232;2023-07-08T16:46:12;31.10;99.90
2973;DHT22;1496;51.404;7.232;2023-07-08T16:48:39;31.20;99.90
2973;DHT22;1496;51.404;7.232;2023-07-08T16:51:26;31.20;99.90
2973;DHT22;1496;51.404;7.232;2023-07-08T16:54:20;31.20;99.90
2973;DHT22;1496;51.404;7.232;2023-07-08T16:56:51;31.20;99.90
2973;DHT22;1496;51.404;7.232;2023-07-08T16:59:18;31.10;99.90
2973;DHT22;1496;51.404;7.232;2023-07-08T17:01:46;31.10;99.90
2973;DHT22;1496;51.404;7.232;2023-07-08T17:04:13;31.00;99.90
2973;DHT22;1496;51.404;7.232;2023-07-08T17:06:41;31.00;99.90
2973;DHT22;1496;51.404;7.232;2023-07-08T17:09:12;30.90;99.90
2973;DHT22;1496;51.404;7.232;2023-07-08T17:11:39;30.80;99.90
2973;DHT22;1496;51.404;7.232;2023-07-08T17:14:06;30.70;99.90
2973;DHT22;1496;51.404;7.232;2023-07-08T17:16:35;30.70;99.90
2973;DHT22;1496;51.404;7.232;2023-07-08T17:19:02;30.70;99.90
2973;DHT22;1496;51.404;7.232;2023-07-08T17:21:30;30.60;99.90
2973;DHT22;1496;51.404;7.232;2023-07-08T17:23:58;30.60;99.90
2973;DHT22;1496;51.404;7.232;2023-07-08T17:26:24;30.60;99.90
2973;DHT22;1496;51.404;7.232;2023-07-08T17:28:51;30.60;99.90